createdAt,value
2018-03-28T00:02:09.059Z,7.73
2018-03-28T00:04:37.352Z,7.57
2018-03-28T00:07:04.883Z,9.40
2018-03-28T00:09:32.510Z,8.70
2018-03-28T00:12:00.152Z,9.37
2018-03-28T00:14:27.673Z,9.20
2018-03-28T00:16:55.236Z,9.47
2018-03-28T00:19:23.656Z,8.13
2018-03-28T00:21:51.245Z,9.50
2018-03-28T00:24:20.003Z,9.30
2018-03-28T00:26:47.554Z,8.90
2018-03-28T00:29:15.126Z,9.50
2018-03-28T00:31:42.629Z,8.73
2018-03-28T00:34:10.172Z,10.33
2018-03-28T00:36:37.726Z,8.97
2018-03-28T00:39:05.972Z,10.27
2018-03-28T00:41:33.498Z,9.93
2018-03-28T00:44:01.816Z,10.47
2018-03-28T00:46:30.620Z,10.90
2018-03-28T00:48:58.211Z,10.53
2018-03-28T00:51:37.425Z,10.83
2018-03-28T00:54:05.879Z,6.20
2018-03-28T00:56:33.397Z,10.07
2018-03-28T00:59:01.689Z,9.77
2018-03-28T01:01:29.982Z,10.17
2018-03-28T01:03:57.657Z,9.83
2018-03-28T01:06:25.191Z,10.93
2018-03-28T01:08:52.782Z,9.73
2018-03-28T01:11:20.304Z,10.30
2018-03-28T01:13:48.083Z,9.60
2018-03-28T01:16:16.517Z,10.30
2018-03-28T01:18:44.070Z,9.40
2018-03-28T01:21:11.973Z,10.27
2018-03-28T01:23:39.527Z,9.60
2018-03-28T01:26:07.233Z,10.63
2018-03-28T01:28:35.021Z,7.77
2018-03-28T01:31:02.515Z,10.73
2018-03-28T01:33:31.219Z,11.30
2018-03-28T01:35:58.768Z,11.27
2018-03-28T01:38:26.282Z,8.83
2018-03-28T01:40:53.828Z,11.07
2018-03-28T01:43:21.340Z,10.63
2018-03-28T01:45:48.862Z,10.67
2018-03-28T01:48:16.721Z,8.13
2018-03-28T01:50:44.565Z,11.70
2018-03-28T01:53:12.090Z,6.77
2018-03-28T01:55:40.381Z,12.97
2018-03-28T01:58:07.877Z,11.57
2018-03-28T02:00:35.564Z,12.10
2018-03-28T02:03:03.102Z,12.50
2018-03-28T02:05:31.678Z,11.60
2018-03-28T02:07:59.370Z,11.73
2018-03-28T02:10:27.192Z,12.10
2018-03-28T02:12:54.797Z,10.93
2018-03-28T02:15:22.332Z,12.37
2018-03-28T02:17:50.077Z,10.17
2018-03-28T02:20:17.625Z,12.97
2018-03-28T02:22:45.175Z,13.30
2018-03-28T02:25:12.736Z,13.17
2018-03-28T02:27:40.252Z,11.77
2018-03-28T02:30:08.445Z,10.10
2018-03-28T02:32:36.087Z,13.30
2018-03-28T02:35:03.612Z,13.23
2018-03-28T02:37:31.318Z,13.87
2018-03-28T02:39:58.839Z,13.57
2018-03-28T02:42:26.425Z,11.37
2018-03-28T02:44:54.049Z,14.60
2018-03-28T02:47:21.684Z,14.47
2018-03-28T02:49:50.009Z,14.47
2018-03-28T02:52:17.971Z,13.87
2018-03-28T02:54:45.519Z,14.33
2018-03-28T02:57:13.051Z,13.00
2018-03-28T02:59:41.533Z,14.50
2018-03-28T03:02:09.185Z,14.73
2018-03-28T03:04:36.787Z,15.43
2018-03-28T03:07:04.345Z,13.07
2018-03-28T03:09:31.931Z,15.83
2018-03-28T03:11:59.439Z,13.97
2018-03-28T03:14:27.814Z,15.23
2018-03-28T03:16:55.538Z,14.30
2018-03-28T03:19:23.086Z,15.37
2018-03-28T03:21:51.201Z,14.07
2018-03-28T03:24:18.721Z,15.37
2018-03-28T03:26:46.455Z,15.87
2018-03-28T03:29:13.987Z,15.67
2018-03-28T03:31:41.581Z,15.77
2018-03-28T03:34:09.087Z,17.00
2018-03-28T03:36:36.621Z,14.93
2018-03-28T03:39:04.155Z,15.50
2018-03-28T03:41:31.681Z,16.20
2018-03-28T03:44:00.167Z,15.87
2018-03-28T03:46:28.483Z,16.30
2018-03-28T03:48:56.009Z,15.77
2018-03-28T03:51:24.297Z,17.57
2018-03-28T03:53:52.658Z,13.63
2018-03-28T03:56:20.569Z,16.47
2018-03-28T03:58:48.093Z,14.30
2018-03-28T04:01:15.816Z,17.43
2018-03-28T04:03:43.529Z,17.97
2018-03-28T04:06:12.001Z,17.10
2018-03-28T04:08:40.410Z,17.40
2018-03-28T04:11:08.116Z,16.90
2018-03-28T04:13:35.959Z,18.33
2018-03-28T04:16:03.611Z,17.93
2018-03-28T04:18:32.121Z,17.60
2018-03-28T04:20:59.697Z,17.60
2018-03-28T04:23:27.240Z,13.93
2018-03-28T04:25:54.770Z,15.97
2018-03-28T04:28:22.537Z,16.27
2018-03-28T04:30:50.082Z,16.43
2018-03-28T04:33:17.617Z,18.70
2018-03-28T04:35:45.124Z,18.37
2018-03-28T04:38:12.872Z,17.97
2018-03-28T04:40:41.627Z,18.50
2018-03-28T04:43:09.952Z,9.93
2018-03-28T04:45:37.465Z,14.60
2018-03-28T04:48:05.226Z,19.53
2018-03-28T04:50:32.899Z,20.30
2018-03-28T04:53:00.421Z,19.33
2018-03-28T04:55:27.962Z,18.87
2018-03-28T04:57:55.494Z,21.30
2018-03-28T05:00:23.018Z,18.43
2018-03-28T05:02:51.043Z,20.40
2018-03-28T05:05:18.558Z,18.43
2018-03-28T05:07:46.462Z,18.30
2018-03-28T05:10:14.203Z,20.67
2018-03-28T05:12:41.748Z,20.87
2018-03-28T05:15:10.203Z,16.17
2018-03-28T05:17:37.967Z,21.27
2018-03-28T05:20:05.755Z,21.17
2018-03-28T05:22:34.095Z,17.73
2018-03-28T05:25:01.830Z,18.00
2018-03-28T05:27:29.362Z,22.30
2018-03-28T05:29:57.634Z,17.23
2018-03-28T05:32:25.196Z,21.67
2018-03-28T05:34:52.821Z,22.37
2018-03-28T05:37:20.384Z,19.93
2018-03-28T05:39:47.906Z,22.23
2018-03-28T05:42:15.720Z,22.33
2018-03-28T05:44:43.261Z,19.60
2018-03-28T05:47:10.869Z,23.37
2018-03-28T05:49:38.456Z,20.90
2018-03-28T05:52:05.985Z,21.37
2018-03-28T05:54:33.529Z,19.37
2018-03-28T05:57:01.024Z,22.17
2018-03-28T05:59:28.701Z,22.63
2018-03-28T06:01:57.254Z,17.53
2018-03-28T06:04:25.554Z,23.73
2018-03-28T06:06:53.483Z,21.27
2018-03-28T06:09:21.028Z,24.77
2018-03-28T06:11:48.562Z,21.00
2018-03-28T06:14:16.276Z,18.30
2018-03-28T06:16:45.621Z,19.00
2018-03-28T06:19:13.180Z,26.97
2018-03-28T06:21:41.035Z,22.90
2018-03-28T06:24:08.742Z,29.20
2018-03-28T06:26:36.355Z,24.40
2018-03-28T06:29:03.952Z,18.17
2018-03-28T06:31:31.454Z,29.00
2018-03-28T06:33:59.005Z,19.57
2018-03-28T06:36:27.279Z,23.80
2018-03-28T06:38:54.812Z,28.00
2018-03-28T06:41:22.299Z,28.03
2018-03-28T06:43:49.903Z,26.30
2018-03-28T06:46:17.652Z,24.43
2018-03-28T06:48:45.171Z,22.70
2018-03-28T06:51:12.869Z,26.13
2018-03-28T06:53:40.575Z,35.07
2018-03-28T06:56:08.633Z,29.47
2018-03-28T06:58:36.389Z,31.27
2018-03-28T07:01:03.946Z,31.07
2018-03-28T07:03:31.865Z,29.90
2018-03-28T07:06:00.519Z,36.60
2018-03-28T07:08:28.254Z,28.23
2018-03-28T07:10:55.745Z,24.20
2018-03-28T07:13:23.435Z,34.00
2018-03-28T07:15:51.816Z,25.93
2018-03-28T07:18:20.116Z,32.10
2018-03-28T07:20:47.656Z,18.43
2018-03-28T07:23:15.927Z,35.60
2018-03-28T07:25:44.205Z,32.63
2018-03-28T07:28:12.544Z,25.37
2018-03-28T07:30:40.042Z,37.40
2018-03-28T07:33:08.315Z,36.30
2018-03-28T07:35:35.942Z,34.27
2018-03-28T07:38:03.435Z,33.90
2018-03-28T07:40:30.990Z,27.87
2018-03-28T07:42:58.465Z,33.13
2018-03-28T07:45:27.658Z,32.67
2018-03-28T07:47:55.503Z,31.53
2018-03-28T07:50:23.159Z,36.47
2018-03-28T07:52:51.852Z,24.93
2018-03-28T07:55:19.640Z,24.13
2018-03-28T07:57:47.481Z,40.17
2018-03-28T08:00:14.994Z,37.10
2018-03-28T08:02:43.106Z,26.13
2018-03-28T08:05:10.670Z,27.73
2018-03-28T08:07:39.368Z,26.33
2018-03-28T08:10:06.974Z,22.43
2018-03-28T08:12:34.558Z,40.47
2018-03-28T08:15:02.355Z,37.93
2018-03-28T08:17:31.398Z,36.53
2018-03-28T08:19:59.154Z,31.97
2018-03-28T08:22:26.960Z,26.90
2018-03-28T08:24:54.697Z,27.03
2018-03-28T08:27:22.245Z,29.27
2018-03-28T08:29:50.777Z,27.37
2018-03-28T08:32:18.614Z,41.67
2018-03-28T08:34:46.156Z,30.17
2018-03-28T08:37:13.747Z,38.27
2018-03-28T08:39:41.878Z,25.40
2018-03-28T08:42:09.881Z,29.30
2018-03-28T08:44:37.620Z,37.20
2018-03-28T08:47:05.390Z,33.87
2018-03-28T08:49:33.162Z,35.00
2018-03-28T08:52:01.573Z,42.60
2018-03-28T08:54:29.685Z,37.70
2018-03-28T08:56:57.171Z,41.43
2018-03-28T08:59:24.708Z,43.53
2018-03-28T09:01:52.293Z,27.10
2018-03-28T09:04:19.999Z,38.87
2018-03-28T09:06:48.107Z,38.03
2018-03-28T09:09:15.637Z,24.00
2018-03-28T09:11:43.150Z,31.30
2018-03-28T09:14:10.847Z,33.07
2018-03-28T09:16:39.681Z,33.13
2018-03-28T09:19:07.230Z,36.43
2018-03-28T09:21:35.627Z,36.93
2018-03-28T09:24:03.175Z,38.70
2018-03-28T09:26:30.728Z,26.97
2018-03-28T09:28:59.076Z,37.57
2018-03-28T09:31:26.606Z,23.30
2018-03-28T09:33:54.117Z,35.40
2018-03-28T09:36:22.808Z,40.83
2018-03-28T09:38:50.497Z,34.37
2018-03-28T09:41:18.159Z,34.20
2018-03-28T09:43:45.837Z,41.33
2018-03-28T09:46:13.396Z,40.57
2018-03-28T09:48:40.909Z,40.03
2018-03-28T09:51:09.310Z,34.13
2018-03-28T09:53:36.870Z,43.47
2018-03-28T09:56:05.365Z,24.87
2018-03-28T09:58:34.043Z,30.50
2018-03-28T10:01:07.658Z,44.60
2018-03-28T10:03:50.590Z,37.63
2018-03-28T10:06:19.107Z,28.50
2018-03-28T10:08:46.672Z,42.20
2018-03-28T10:11:14.200Z,34.50
2018-03-28T10:13:41.737Z,44.30
2018-03-28T10:16:09.724Z,24.17
2018-03-28T10:18:37.260Z,45.13
2018-03-28T10:21:04.802Z,39.27
2018-03-28T10:23:32.302Z,43.57
2018-03-28T10:25:59.873Z,36.90
2018-03-28T10:28:27.375Z,34.43
2018-03-28T10:30:54.882Z,33.37
2018-03-28T10:33:22.490Z,47.10
2018-03-28T10:35:50.100Z,32.57
2018-03-28T10:38:17.745Z,24.77
2018-03-28T10:40:45.443Z,45.03
2018-03-28T10:43:13.630Z,31.27
2018-03-28T10:45:41.455Z,48.87
2018-03-28T10:48:08.994Z,39.03
2018-03-28T10:50:36.562Z,27.70
2018-03-28T10:53:04.069Z,36.00
2018-03-28T10:55:31.958Z,28.50
2018-03-28T10:58:00.228Z,39.57
2018-03-28T11:00:27.954Z,38.80
2018-03-28T11:02:55.476Z,42.97
2018-03-28T11:05:23.049Z,44.83
2018-03-28T11:07:50.585Z,27.73
2018-03-28T11:10:18.877Z,41.63
2018-03-28T11:12:46.498Z,34.63
2018-03-28T11:15:14.023Z,35.83
2018-03-28T11:17:41.561Z,40.90
2018-03-28T11:20:09.399Z,42.80
2018-03-28T11:22:37.691Z,41.07
2018-03-28T11:25:05.215Z,19.90
2018-03-28T11:27:33.040Z,34.07
2018-03-28T11:30:00.692Z,40.10
2018-03-28T11:32:28.327Z,41.23
2018-03-28T11:34:56.018Z,38.00
2018-03-28T11:37:24.248Z,45.33
2018-03-28T11:39:51.800Z,43.53
2018-03-28T11:42:19.318Z,26.63
2018-03-28T11:44:47.068Z,45.37
2018-03-28T11:47:14.611Z,41.10
2018-03-28T11:49:42.334Z,49.33
2018-03-28T11:52:09.839Z,38.23
2018-03-28T11:54:37.897Z,41.60
2018-03-28T11:57:06.298Z,38.07
2018-03-28T11:59:33.910Z,36.63
2018-03-28T12:02:01.478Z,39.50
2018-03-28T12:04:29.008Z,37.80
2018-03-28T12:06:56.583Z,37.33
2018-03-28T12:09:24.078Z,37.53
2018-03-28T12:11:51.731Z,30.17
2018-03-28T12:14:19.466Z,34.37
2018-03-28T12:16:47.568Z,33.70
2018-03-28T12:19:15.846Z,21.60
2018-03-28T12:21:44.122Z,37.87
2018-03-28T12:24:11.836Z,20.40
2018-03-28T12:26:39.452Z,15.57
2018-03-28T12:29:06.975Z,25.07
2018-03-28T12:31:34.525Z,34.33
2018-03-28T12:34:02.798Z,32.90
2018-03-28T12:36:30.416Z,17.70
2018-03-28T12:38:58.160Z,31.00
2018-03-28T12:41:25.764Z,29.47
2018-03-28T12:43:53.724Z,24.13
2018-03-28T12:46:21.624Z,30.93
2018-03-28T12:48:49.118Z,32.47
2018-03-28T12:51:16.687Z,26.80
2018-03-28T12:53:45.000Z,24.90
2018-03-28T12:56:12.551Z,21.97
2018-03-28T12:58:40.116Z,33.10
2018-03-28T13:01:07.800Z,18.03
2018-03-28T13:03:35.528Z,21.60
2018-03-28T13:06:03.067Z,21.87
2018-03-28T13:08:31.401Z,28.03
2018-03-28T13:10:59.897Z,21.97
2018-03-28T13:13:27.387Z,24.23
2018-03-28T13:15:54.975Z,30.37
2018-03-28T13:18:22.746Z,16.67
2018-03-28T13:20:50.270Z,24.00
2018-03-28T13:23:17.968Z,20.63
2018-03-28T13:25:45.501Z,24.23
2018-03-28T13:28:13.872Z,32.00
2018-03-28T13:30:41.653Z,26.23
2018-03-28T13:33:09.974Z,27.37
2018-03-28T13:35:37.613Z,25.13
2018-03-28T13:38:05.438Z,34.57
2018-03-28T13:40:32.958Z,26.50
2018-03-28T13:43:00.475Z,29.47
2018-03-28T13:45:28.740Z,24.17
2018-03-28T13:47:56.345Z,25.40
2018-03-28T13:50:23.899Z,31.43
2018-03-28T13:52:51.396Z,29.37
2018-03-28T13:55:18.915Z,21.27
2018-03-28T13:57:46.447Z,22.57
2018-03-28T14:00:13.966Z,17.33
2018-03-28T14:02:41.497Z,17.83
2018-03-28T14:05:09.134Z,21.33
2018-03-28T14:07:36.957Z,15.83
2018-03-28T14:10:04.501Z,25.53
2018-03-28T14:12:32.139Z,20.10
2018-03-28T14:14:59.858Z,24.23
2018-03-28T14:17:27.469Z,28.93
2018-03-28T14:19:55.214Z,29.50
2018-03-28T14:22:22.760Z,30.73
2018-03-28T14:24:51.053Z,23.10
2018-03-28T14:27:18.564Z,29.47
2018-03-28T14:29:46.273Z,28.43
2018-03-28T14:32:14.073Z,29.73
2018-03-28T14:34:41.927Z,17.53
2018-03-28T14:37:09.679Z,21.87
2018-03-28T14:39:37.224Z,20.67
2018-03-28T14:42:04.849Z,24.93
2018-03-28T14:44:33.089Z,19.67
2018-03-28T14:47:00.662Z,23.87
2018-03-28T14:49:28.239Z,28.93
2018-03-28T14:51:55.775Z,17.53
2018-03-28T14:54:23.328Z,24.87
2018-03-28T14:56:50.876Z,22.00
2018-03-28T14:59:18.722Z,19.90
2018-03-28T15:01:46.404Z,26.00
2018-03-28T15:04:13.930Z,13.07
2018-03-28T15:06:41.500Z,26.23
2018-03-28T15:09:09.804Z,19.97
2018-03-28T15:11:38.060Z,20.27
2018-03-28T15:14:05.644Z,15.20
2018-03-28T15:16:33.449Z,16.97
2018-03-28T15:19:01.006Z,21.67
2018-03-28T15:21:30.033Z,16.40
2018-03-28T15:23:57.645Z,15.40
2018-03-28T15:26:25.202Z,24.20
2018-03-28T15:28:52.783Z,23.33
2018-03-28T15:31:20.316Z,19.30
2018-03-28T15:33:47.866Z,23.90
2018-03-28T15:36:15.671Z,14.93
2018-03-28T15:38:43.970Z,18.10
2018-03-28T15:41:12.245Z,17.93
2018-03-28T15:43:40.508Z,18.63
2018-03-28T15:46:08.279Z,19.27
2018-03-28T15:48:35.799Z,23.63
2018-03-28T15:51:03.319Z,17.33
2018-03-28T15:53:30.837Z,17.47
2018-03-28T15:55:58.480Z,24.17
2018-03-28T15:58:26.031Z,26.30
2018-03-28T16:00:54.121Z,21.73
2018-03-28T16:03:21.661Z,21.17
2018-03-28T16:05:49.216Z,24.53
2018-03-28T16:08:16.836Z,18.93
2018-03-28T16:10:44.405Z,23.43
2018-03-28T16:13:12.729Z,22.50
2018-03-28T16:15:40.376Z,24.63
2018-03-28T16:18:08.014Z,23.10
2018-03-28T16:20:35.771Z,16.37
2018-03-28T16:23:04.271Z,18.53
2018-03-28T16:25:31.800Z,22.00
2018-03-28T16:27:59.531Z,29.60
2018-03-28T16:30:27.096Z,26.07
2018-03-28T16:32:54.814Z,15.93
2018-03-28T16:35:23.473Z,22.33
2018-03-28T16:37:51.003Z,23.83
2018-03-28T16:40:18.570Z,26.13
2018-03-28T16:42:46.120Z,23.83
2018-03-28T16:45:13.793Z,16.13
2018-03-28T16:47:41.331Z,26.70
2018-03-28T16:50:08.833Z,24.27
2018-03-28T16:52:37.458Z,21.73
2018-03-28T16:55:04.995Z,26.93
2018-03-28T16:57:32.612Z,26.93
2018-03-28T17:00:00.322Z,29.13
2018-03-28T17:02:27.993Z,25.17
2018-03-28T17:04:55.868Z,18.83
2018-03-28T17:07:23.638Z,26.03
2018-03-28T17:09:51.401Z,20.30
2018-03-28T17:12:19.028Z,22.77
2018-03-28T17:14:47.660Z,19.53
2018-03-28T17:17:15.185Z,27.57
2018-03-28T17:19:42.796Z,28.23
2018-03-28T17:22:10.424Z,22.37
2018-03-28T17:24:37.971Z,26.33
2018-03-28T17:27:05.507Z,24.27
2018-03-28T17:29:33.813Z,31.53
2018-03-28T17:32:01.630Z,26.90
2018-03-28T17:34:29.212Z,30.37
2018-03-28T17:36:56.966Z,24.63
2018-03-28T17:39:24.538Z,23.47
2018-03-28T17:41:52.950Z,30.73
2018-03-28T17:44:21.241Z,32.27
2018-03-28T17:46:48.784Z,21.80
2018-03-28T17:49:16.349Z,24.60
2018-03-28T17:51:43.930Z,31.23
2018-03-28T17:54:11.553Z,21.77
2018-03-28T17:56:40.103Z,29.80
2018-03-28T17:59:08.000Z,27.53
2018-03-28T18:01:35.861Z,30.53
2018-03-28T18:04:03.957Z,20.43
2018-03-28T18:06:32.658Z,32.90
2018-03-28T18:09:00.233Z,34.20
2018-03-28T18:11:27.774Z,32.37
2018-03-28T18:13:55.407Z,32.13
2018-03-28T18:16:24.174Z,27.40
2018-03-28T18:18:51.798Z,30.13
2018-03-28T18:21:19.516Z,25.17
2018-03-28T18:23:47.068Z,29.33
2018-03-28T18:26:14.692Z,24.73
2018-03-28T18:28:42.263Z,23.90
2018-03-28T18:31:09.802Z,30.87
2018-03-28T18:33:37.356Z,25.27
2018-03-28T18:36:05.232Z,31.90
2018-03-28T18:38:32.796Z,20.93
2018-03-28T18:41:00.598Z,23.50
2018-03-28T18:43:28.188Z,22.60
2018-03-28T18:45:55.765Z,33.07
2018-03-28T18:48:23.441Z,31.00
2018-03-28T18:50:51.266Z,24.50
2018-03-28T18:53:18.824Z,34.47
2018-03-28T18:55:46.626Z,24.60
2018-03-28T18:58:14.485Z,28.43
2018-03-28T19:00:42.395Z,36.73
2018-03-28T19:03:10.241Z,22.77
2018-03-28T19:05:38.204Z,30.33
2018-03-28T19:08:05.873Z,35.13
2018-03-28T19:10:33.548Z,37.63
2018-03-28T19:13:01.253Z,24.67
2018-03-28T19:15:29.654Z,36.23
2018-03-28T19:17:57.847Z,22.57
2018-03-28T19:20:25.580Z,29.13
2018-03-28T19:22:53.246Z,39.40
2018-03-28T19:25:20.857Z,40.50
2018-03-28T19:27:48.464Z,23.50
2018-03-28T19:30:16.082Z,36.53
2018-03-28T19:32:43.755Z,33.57
2018-03-28T19:35:12.293Z,36.40
2018-03-28T19:37:39.916Z,38.63
2018-03-28T19:40:07.518Z,33.23
2018-03-28T19:42:35.118Z,37.57
2018-03-28T19:45:02.733Z,24.17
2018-03-28T19:47:30.413Z,34.63
2018-03-28T19:49:58.346Z,35.63
2018-03-28T19:52:27.035Z,31.07
2018-03-28T19:54:54.649Z,39.73
2018-03-28T19:57:23.286Z,40.93
2018-03-28T19:59:51.327Z,43.10
2018-03-28T20:02:19.832Z,43.87
2018-03-28T20:04:47.765Z,46.97
2018-03-28T20:07:15.365Z,28.87
2018-03-28T20:09:43.131Z,46.77
2018-03-28T20:12:10.721Z,39.30
2018-03-28T20:14:38.303Z,53.27
2018-03-28T20:17:06.092Z,44.73
2018-03-28T20:19:33.628Z,41.17
2018-03-28T20:22:01.249Z,42.67
2018-03-28T20:24:29.544Z,27.77
2018-03-28T20:26:57.066Z,33.80
2018-03-28T20:29:24.773Z,58.93
2018-03-28T20:31:52.405Z,48.27
2018-03-28T20:34:19.997Z,39.73
2018-03-28T20:36:47.852Z,54.90
2018-03-28T20:39:16.083Z,35.70
2018-03-28T20:41:43.996Z,38.47
2018-03-28T20:44:11.851Z,51.87
2018-03-28T20:46:39.471Z,39.33
2018-03-28T20:49:07.126Z,38.83
2018-03-28T20:51:35.249Z,37.00
2018-03-28T20:54:02.849Z,58.43
2018-03-28T20:56:31.191Z,56.80
2018-03-28T20:58:59.203Z,50.37
2018-03-28T21:01:27.186Z,59.70
2018-03-28T21:03:55.086Z,30.63
2018-03-28T21:06:23.059Z,48.10
2018-03-28T21:08:50.847Z,39.07
2018-03-28T21:11:18.899Z,26.33
2018-03-28T21:13:47.396Z,45.40
2018-03-28T21:16:14.960Z,54.57
2018-03-28T21:18:42.738Z,40.20
2018-03-28T21:21:11.095Z,49.90
2018-03-28T21:23:38.643Z,43.87
2018-03-28T21:26:06.425Z,37.57
2018-03-28T21:28:33.997Z,34.93
2018-03-28T21:31:01.576Z,48.70
2018-03-28T21:33:30.012Z,54.73
2018-03-28T21:35:58.219Z,40.40
2018-03-28T21:38:26.283Z,37.67
2018-03-28T21:40:54.166Z,42.33
2018-03-28T21:43:21.733Z,48.03
2018-03-28T21:45:49.397Z,43.63
2018-03-28T21:48:17.516Z,34.83
2018-03-28T21:50:45.182Z,34.80
2018-03-28T21:53:13.145Z,42.40
2018-03-28T21:55:40.896Z,50.97
2018-03-28T21:58:08.526Z,41.60
2018-03-28T22:00:36.317Z,45.77
2018-03-28T22:03:04.104Z,32.73
2018-03-28T22:05:31.649Z,44.93
2018-03-28T22:07:59.211Z,32.23
2018-03-28T22:10:26.737Z,44.40
2018-03-28T22:12:54.338Z,46.43
2018-03-28T22:15:22.088Z,41.60
2018-03-28T22:17:51.521Z,39.23
2018-03-28T22:20:19.412Z,32.70
2018-03-28T22:22:47.081Z,41.60
2018-03-28T22:25:14.903Z,46.70
2018-03-28T22:27:42.466Z,35.77
2018-03-28T22:30:09.985Z,40.33
2018-03-28T22:32:38.455Z,27.07
2018-03-28T22:35:06.037Z,47.53
2018-03-28T22:37:34.443Z,36.97
2018-03-28T22:40:01.980Z,45.83
2018-03-28T22:42:30.248Z,43.80
2018-03-28T22:44:57.970Z,24.77
2018-03-28T22:47:25.517Z,44.40
2018-03-28T22:49:53.087Z,39.10
2018-03-28T22:52:20.696Z,38.53
2018-03-28T22:54:48.235Z,43.57
2018-03-28T22:57:15.775Z,38.27
2018-03-28T22:59:43.351Z,41.37
2018-03-28T23:02:11.136Z,45.03
2018-03-28T23:04:38.747Z,41.43
2018-03-28T23:07:06.259Z,36.97
2018-03-28T23:09:34.555Z,32.60
2018-03-28T23:12:03.114Z,27.37
2018-03-28T23:14:30.691Z,36.83
2018-03-28T23:16:58.204Z,41.63
2018-03-28T23:19:25.852Z,23.43
2018-03-28T23:21:54.076Z,40.50
2018-03-28T23:24:21.629Z,23.53
2018-03-28T23:26:49.140Z,37.10
2018-03-28T23:29:17.051Z,29.87
2018-03-28T23:31:44.578Z,31.73
2018-03-28T23:34:12.070Z,35.90
2018-03-28T23:36:39.762Z,30.60
2018-03-28T23:39:07.463Z,22.27
2018-03-28T23:41:35.099Z,36.73
2018-03-28T23:44:02.622Z,39.63
2018-03-28T23:46:30.148Z,27.30
2018-03-28T23:48:57.645Z,37.97
2018-03-28T23:51:25.202Z,39.73
2018-03-28T23:53:53.496Z,39.60
2018-03-28T23:56:21.764Z,30.07
2018-03-28T23:58:50.150Z,36.33
